Terminal Aerodrome Forecast
Issued by NWS Denver/Boulder, CO

Home | Current Version | Previous Version | Text Only | Print | Product List | Glossary On
Versions: 1 2 3 4 5 6 7 8 9 10 11 12 13 14 15 16 17 18 19 20 21 22 23 24 25 26 27 28 29 30 31 32 33
000
FTUS45 KBOU 170901 AAB
TAFDEN
TAF AMD
KDEN 170901Z 1709/1812 16011KT P6SM FEW060 SCT150 BKN220
     FM171100 19010KT P6SM SCT140 BKN220
     FM171600 VRB05KT P6SM FEW100 SCT220
     FM172000 05007KT P6SM FEW140 SCT220
     FM180300 20010KT P6SM FEW140 SCT220=

USA.gov is the U.S. government's official web portal to all federal, state and local government web resources and services.